Terminal Aerodrome Forecast
Issued by NWS

Home | Current Version | Previous Version | Text Only | Print | Product List | Glossary On
Versions: 1 2 3 4 5 6 7 8 9 10 11 12 13 14 15
919
FTUS42 TJSJ 260520
TAFJBQ
TAF
TJBQ 260520Z 2606/2706 24005KT P6SM FEW030 SCT050
     FM261400 07014KT P6SM SCT025 SCT050
     FM261800 07012G22KT P6SM TSRA SCT035CB BKN050 OVC080
     FM262200 12004KT P6SM VCSH SCT035 SCT050 SCT080
      AMD NOT SKED TIL 261100=

USA.gov is the U.S. government's official web portal to all federal, state and local government web resources and services.